Time;durP1;ratioP1;P1;durP2;ratioP2;P2;SDS_P1;SDS_P2;PMS_P1;PMS_P2;Temp;Humidity;BMP_temperature;BMP_pressure;BME280_temperature;BME280_humidity;BME280_pressure;Samples;Min_cycle;Max_cycle;Signal;HPM_P1;HPM_P2
2022/05/03 00:01:42;;;;;;;15.30;6.13;;;;;;;12.24;71.72;101421.03;5073175;28;20135;-77
2022/05/03 00:05:03;;;;;;;12.82;5.57;;;;;;;12.21;72.90;101421.00;5079767;28;20576;-77
2022/05/03 00:07:48;;;;;;;13.07;5.50;;;;;;;12.16;73.27;101411.13;5049021;28;20124;-77
2022/05/03 00:10:23;;;;;;;15.23;6.03;;;;;;;12.14;72.83;101419.03;5077702;28;20131;-77
2022/05/03 00:12:57;;;;;;;15.05;5.88;;;;;;;12.08;74.56;101423.34;5077936;28;20143;-77
2022/05/03 00:15:24;;;;;;;13.38;6.07;;;;;;;12.04;74.09;101418.97;5076211;28;20051;-77
2022/05/03 00:17:53;;;;;;;16.80;5.28;;;;;;;12.01;73.91;101411.41;5077562;28;20508;-77
2022/05/03 00:20:21;;;;;;;13.23;6.00;;;;;;;11.95;74.82;101415.78;5076212;28;20064;-76
2022/05/03 00:22:47;;;;;;;13.88;5.38;;;;;;;11.93;75.28;101415.34;5076690;28;20195;-77
2022/05/03 00:25:16;;;;;;;18.48;6.25;;;;;;;11.86;75.12;101413.38;5076483;28;20058;-78
2022/05/03 00:27:43;;;;;;;11.63;5.22;;;;;;;11.81;74.97;101416.50;5078920;28;20131;-78
2022/05/03 00:30:10;;;;;;;16.50;5.80;;;;;;;11.75;75.75;101409.72;5085165;28;20461;-78
2022/05/03 00:32:39;;;;;;;16.42;6.05;;;;;;;11.70;76.30;101412.06;5078756;28;20058;-78
2022/05/03 00:35:06;;;;;;;13.57;6.25;;;;;;;11.63;76.55;101406.50;5078327;28;20048;-78
2022/05/03 00:37:33;;;;;;;13.63;5.30;;;;;;;11.55;77.11;101390.97;5083662;28;20058;-78
2022/05/03 00:40:00;;;;;;;12.65;5.72;;;;;;;11.55;77.52;101400.09;5074362;28;20132;-78
2022/05/03 00:42:33;;;;;;;12.52;6.03;;;;;;;11.49;78.62;101398.06;5080008;28;20047;-78
2022/05/03 00:45:00;;;;;;;15.10;5.70;;;;;;;11.41;78.45;101397.22;5075959;28;20105;-78
2022/05/03 00:47:52;;;;;;;16.42;5.75;;;;;;;11.34;79.83;101390.88;5080272;28;20044;-78
2022/05/03 00:50:29;;;;;;;14.77;5.53;;;;;;;11.31;80.63;101392.41;5077900;28;20055;-78
2022/05/03 00:52:59;;;;;;;16.70;6.22;;;;;;;11.25;79.68;101390.41;5072811;28;20136;-80
2022/05/03 00:55:45;;;;;;;14.82;5.97;;;;;;;11.18;80.85;101390.34;5080016;28;20063;-78
2022/05/03 00:58:33;;;;;;;14.40;6.22;;;;;;;11.13;82.06;101382.41;5075986;28;20051;-78
2022/05/03 01:01:04;;;;;;;12.57;5.05;;;;;;;11.12;82.18;101392.69;5079734;28;20133;-77
2022/05/03 01:03:51;;;;;;;14.32;6.53;;;;;;;11.05;82.42;101384.31;5079746;28;20145;-77
2022/05/03 01:06:26;;;;;;;13.95;5.65;;;;;;;11.06;82.03;101390.63;5075016;28;20052;-78
2022/05/03 01:09:06;;;;;;;13.13;5.93;;;;;;;10.93;82.65;101392.91;5082356;28;20083;-78
2022/05/03 01:11:47;;;;;;;14.20;5.55;;;;;;;10.80;82.53;101396.38;5086016;28;20051;-78
2022/05/03 01:15:05;;;;;;;12.82;5.75;;;;;;;10.79;84.51;101403.06;5086795;28;20044;-77
2022/05/03 01:17:37;;;;;;;13.70;5.72;;;;;;;10.82;84.71;101396.78;5069095;28;20058;-77
2022/05/03 01:20:08;;;;;;;13.60;5.38;;;;;;;10.82;84.94;101399.53;5086525;28;20052;-76
2022/05/03 01:22:55;;;;;;;12.32;5.80;;;;;;;10.83;85.34;101399.16;5084541;28;20105;-77
2022/05/03 01:25:31;;;;;;;16.35;5.80;;;;;;;10.80;83.94;101405.47;5083427;28;20453;-78
2022/05/03 01:28:10;;;;;;;13.00;5.72;;;;;;;10.79;84.52;101405.84;5080403;28;20054;-77
2022/05/03 01:30:37;;;;;;;13.32;5.88;;;;;;;10.78;85.22;101401.50;5085508;28;20048;-78
2022/05/03 01:33:08;;;;;;;15.93;6.25;;;;;;;10.72;85.23;101398.28;5086509;28;20044;-77
2022/05/03 01:35:38;;;;;;;14.48;6.03;;;;;;;10.69;85.29;101403.81;5082600;28;20054;-78
2022/05/03 01:38:07;;;;;;;13.77;6.00;;;;;;;10.63;85.64;101405.31;5084124;28;20048;-77
2022/05/03 01:41:05;;;;;;;15.88;5.47;;;;;;;10.59;84.50;101408.03;5074854;28;20044;-78
2022/05/03 01:43:52;;;;;;;11.85;5.30;;;;;;;10.55;85.18;101404.44;5080957;28;20048;-78
2022/05/03 01:46:24;;;;;;;13.50;5.55;;;;;;;10.46;84.99;101402.00;5078821;28;20048;-76
2022/05/03 01:52:13;;;;;;;15.02;5.43;;;;;;;10.42;88.66;101403.13;5088223;28;20074;-78
2022/05/03 01:54:58;;;;;;;16.60;5.65;;;;;;;10.42;87.90;101392.88;5089865;28;20540;-78
2022/05/03 01:58:01;;;;;;;13.40;5.85;;;;;;;10.41;87.84;101388.50;5079180;28;20679;-77
2022/05/03 02:00:33;;;;;;;15.90;5.97;;;;;;;10.37;87.03;101392.41;5072132;28;20451;-77
2022/05/03 02:03:19;;;;;;;15.18;6.10;;;;;;;10.28;87.72;101389.16;5072009;28;20154;-77
2022/05/03 02:05:54;;;;;;;15.82;6.18;;;;;;;10.22;88.69;101391.47;5078356;28;22050;-77
2022/05/03 02:08:22;;;;;;;;;;;;;;;10.19;90.75;101386.69;5087236;28;20119;-77
2022/05/03 02:11:01;;;;;;;14.90;5.88;;;;;;;10.14;88.79;101389.00;5079141;28;20041;-77
2022/05/03 02:16:48;;;;;;;15.02;6.15;;;;;;;10.02;89.89;101390.00;5076483;28;20139;-77
2022/05/03 02:19:17;;;;;;;;;;;;;;;9.99;92.08;101392.75;5073441;28;20047;-77
2022/05/03 02:21:56;;;;;;;13.88;5.97;;;;;;;9.96;91.20;101385.22;5083442;28;19966;-77
2022/05/03 02:24:55;;;;;;;12.10;5.55;;;;;;;9.95;91.15;101387.16;5075703;28;20059;-77
2022/05/03 02:27:23;;;;;;;14.85;6.05;;;;;;;9.94;90.76;101379.25;5083451;28;20048;-76
2022/05/03 02:29:50;;;;;;;14.63;5.90;;;;;;;9.87;90.63;101376.41;5077472;28;20053;-77
2022/05/03 02:32:46;;;;;;;15.90;5.93;;;;;;;9.82;91.18;101380.28;5078384;28;20046;-78
2022/05/03 02:35:20;;;;;;;16.92;6.47;;;;;;;9.77;91.94;101375.09;5074727;28;20071;-78
2022/05/03 02:38:06;;;;;;;12.55;5.85;;;;;;;9.72;93.52;101383.72;5085695;28;20048;-77
2022/05/03 02:40:33;;;;;;;15.23;5.90;;;;;;;9.69;94.53;101391.97;5079546;28;20128;-77
2022/05/03 02:43:00;;;;;;;16.58;6.63;;;;;;;9.64;95.57;101393.09;5078580;28;20469;-77
2022/05/03 02:45:33;;;;;;;15.82;6.57;;;;;;;9.57;93.99;101387.47;5081783;28;20067;-77
2022/05/03 02:48:08;;;;;;;15.45;6.43;;;;;;;9.54;94.79;101393.75;5083722;28;20786;-77
2022/05/03 02:50:57;;;;;;;19.02;6.22;;;;;;;9.50;94.38;101392.09;5081856;28;20135;-78
2022/05/03 02:53:30;;;;;;;16.92;6.93;;;;;;;9.49;95.70;101391.28;5076621;28;20135;-76
2022/05/03 02:56:16;;;;;;;13.88;6.07;;;;;;;9.40;94.83;101389.97;5079061;28;20058;-77
2022/05/03 02:59:17;;;;;;;16.67;6.78;;;;;;;9.35;94.91;101390.31;5081075;28;20079;-77
2022/05/03 03:01:59;;;;;;;15.25;5.95;;;;;;;9.31;96.81;101393.00;5059682;28;20061;-78
2022/05/03 03:04:52;;;;;;;13.40;6.22;;;;;;;9.32;97.00;101380.78;5077105;28;20107;-77
2022/05/03 03:07:20;;;;;;;14.68;5.68;;;;;;;9.33;97.92;101393.44;5082726;28;20047;-78
2022/05/03 03:09:52;;;;;;;16.73;6.28;;;;;;;9.32;97.14;101391.84;5079901;28;20078;-78
2022/05/03 03:12:39;;;;;;;14.00;6.25;;;;;;;9.34;96.55;101388.69;5081294;28;20046;-78
2022/05/03 03:15:07;;;;;;;14.30;6.60;;;;;;;9.29;96.15;101383.50;5076203;28;20575;-79
2022/05/03 03:17:50;;;;;;;17.33;6.72;;;;;;;9.23;96.12;101385.81;5079973;28;20045;-78
2022/05/03 03:20:23;;;;;;;17.55;7.95;;;;;;;9.21;96.63;101377.09;5082333;28;20171;-77
2022/05/03 03:22:50;;;;;;;14.65;6.60;;;;;;;9.20;96.99;101392.06;5082435;28;20048;-80
2022/05/03 03:25:18;;;;;;;15.23;6.85;;;;;;;9.17;96.27;101387.28;5068370;28;20108;-78
2022/05/03 03:27:51;;;;;;;19.92;7.05;;;;;;;9.15;96.51;101386.84;5080396;28;20052;-77
2022/05/03 03:30:20;;;;;;;15.48;7.32;;;;;;;9.13;97.12;101380.09;5077568;28;20060;-77
2022/05/03 03:32:49;;;;;;;17.80;7.22;;;;;;;9.08;97.99;101391.47;5079472;28;20086;-77
2022/05/03 03:35:16;;;;;;;15.38;7.15;;;;;;;9.05;99.06;101384.72;5083390;28;20054;-77
2022/05/03 03:37:45;;;;;;;18.42;7.78;;;;;;;9.07;97.89;101379.63;5086093;28;20127;-78
2022/05/03 03:40:16;;;;;;;17.27;7.43;;;;;;;9.02;97.82;101382.72;5068527;28;20399;-78
2022/05/03 03:42:43;;;;;;;16.50;7.38;;;;;;;8.96;98.29;101378.69;5080401;28;20043;-77
2022/05/03 03:45:13;;;;;;;18.00;7.55;;;;;;;8.93;98.39;101379.41;5077426;28;20082;-77
2022/05/03 03:47:41;;;;;;;18.27;7.75;;;;;;;8.88;97.77;101388.00;5080208;28;20044;-77
2022/05/03 03:50:09;;;;;;;15.70;7.63;;;;;;;8.87;98.50;101383.66;5086590;28;20455;-77
2022/05/03 03:52:39;;;;;;;16.77;7.57;;;;;;;8.81;99.09;101382.34;5084184;28;20044;-77
2022/05/03 03:55:07;;;;;;;17.77;7.75;;;;;;;8.70;98.54;101375.06;5081089;28;20048;-77
2022/05/03 03:57:35;;;;;;;15.15;7.65;;;;;;;8.73;98.23;101379.84;5075150;28;20083;-77
2022/05/03 04:00:05;;;;;;;16.55;7.45;;;;;;;8.71;98.67;101382.97;5072493;28;20155;-77
2022/05/03 04:02:32;;;;;;;18.63;7.55;;;;;;;8.65;98.42;101387.22;5078478;28;20156;-76
2022/05/03 04:05:00;;;;;;;15.32;7.40;;;;;;;8.64;100.00;101385.63;5073489;28;20040;-77
2022/05/03 04:07:26;;;;;;;14.73;7.25;;;;;;;8.58;99.14;101384.34;5083762;28;20070;-77
2022/05/03 04:09:53;;;;;;;17.25;8.20;;;;;;;8.60;99.51;101383.97;5080412;28;20058;-78
2022/05/03 04:12:20;;;;;;;15.18;7.40;;;;;;;8.57;99.78;101381.97;5071601;28;20055;-77
2022/05/03 04:14:47;;;;;;;15.77;7.22;;;;;;;8.56;100.00;101381.16;5082874;28;20138;-78
2022/05/03 04:17:14;;;;;;;16.58;7.20;;;;;;;8.55;100.00;101378.75;5081558;28;20492;-77
2022/05/03 04:19:42;;;;;;;18.80;7.97;;;;;;;8.52;100.00;101380.28;5078627;28;20056;-77
2022/05/03 04:22:29;;;;;;;17.85;8.00;;;;;;;8.57;100.00;101381.97;5082037;28;20067;-77
2022/05/03 04:24:57;;;;;;;23.02;8.52;;;;;;;8.62;100.00;101387.97;5081220;28;20046;-77
2022/05/03 04:27:24;;;;;;;17.70;8.63;;;;;;;8.60;100.00;101370.97;5080238;28;20881;-77
2022/05/03 04:29:51;;;;;;;16.70;7.53;;;;;;;8.68;100.00;101389.25;5077996;28;20139;-77
2022/05/03 04:32:22;;;;;;;18.63;9.15;;;;;;;8.61;100.00;101383.59;5080422;28;20044;-79
2022/05/03 04:34:49;;;;;;;22.10;9.20;;;;;;;8.63;100.00;101395.06;5075958;28;20060;-77
2022/05/03 04:37:16;;;;;;;17.10;8.13;;;;;;;8.62;100.00;101392.66;5085627;28;20110;-79
2022/05/03 04:39:42;;;;;;;18.25;8.15;;;;;;;8.62;100.00;101387.97;5076483;28;20135;-79
2022/05/03 04:42:09;;;;;;;18.02;8.07;;;;;;;8.65;100.00;101397.47;5084688;28;20067;-77
2022/05/03 04:44:36;;;;;;;18.85;8.50;;;;;;;8.66;100.00;101404.56;5076563;28;20132;-78
2022/05/03 04:47:03;;;;;;;17.30;8.18;;;;;;;8.67;100.00;101420.75;5091760;28;20052;-77
2022/05/03 04:49:30;;;;;;;20.10;8.82;;;;;;;8.66;100.00;101410.88;5075607;28;20049;-76
2022/05/03 04:51:56;;;;;;;20.35;8.90;;;;;;;8.70;100.00;101414.50;5080810;28;20131;-77
2022/05/03 04:54:24;;;;;;;18.80;9.25;;;;;;;8.71;100.00;101409.78;5088367;28;20504;-77
2022/05/03 04:56:58;;;;;;;21.73;9.40;;;;;;;8.75;100.00;101414.22;5085303;28;20056;-77
2022/05/03 04:59:24;;;;;;;16.95;8.73;;;;;;;8.74;100.00;101414.56;5075808;28;20055;-77
2022/05/03 05:01:51;;;;;;;16.85;8.32;;;;;;;8.71;100.00;101410.56;5080713;28;20106;-78
2022/05/03 05:04:17;;;;;;;19.15;8.35;;;;;;;8.77;100.00;101414.63;5080845;28;20049;-77
2022/05/03 05:06:44;;;;;;;21.23;8.77;;;;;;;8.79;99.95;101414.25;5073302;28;20128;-76
2022/05/03 05:09:15;;;;;;;20.23;9.07;;;;;;;8.84;100.00;101417.50;5083920;28;20048;-77
2022/05/03 05:11:42;;;;;;;18.60;8.43;;;;;;;8.91;99.70;101414.84;5077593;28;20082;-77
2022/05/03 05:14:08;;;;;;;19.02;8.43;;;;;;;8.99;98.63;101418.53;5070745;28;20173;-77
2022/05/03 05:16:35;;;;;;;19.73;9.82;;;;;;;9.06;98.46;101424.16;5087700;28;20179;-78
2022/05/03 05:19:02;;;;;;;21.98;8.98;;;;;;;9.11;97.48;101419.13;5083993;28;20048;-77
2022/05/03 05:21:28;;;;;;;19.25;8.82;;;;;;;9.21;97.04;101424.03;5082511;28;20123;-77
2022/05/03 05:23:55;;;;;;;17.10;7.45;;;;;;;9.29;96.15;101417.47;5085583;28;20071;-77
2022/05/03 05:26:21;;;;;;;17.88;8.50;;;;;;;9.37;95.62;101416.38;5078539;28;20056;-77
2022/05/03 05:28:48;;;;;;;18.50;8.20;;;;;;;9.44;95.12;101426.72;5079092;28;20143;-77
2022/05/03 05:31:15;;;;;;;19.23;8.20;;;;;;;9.51;95.20;101427.63;5085554;28;20519;-77
2022/05/03 05:33:41;;;;;;;17.60;8.43;;;;;;;9.59;94.87;101429.31;5080336;28;20134;-77
2022/05/03 05:36:08;;;;;;;21.02;9.07;;;;;;;9.69;93.89;101434.19;5087560;28;20040;-77
2022/05/03 05:38:35;;;;;;;16.13;7.85;;;;;;;9.76;93.26;101434.28;5079848;28;20527;-77
2022/05/03 05:41:12;;;;;;;18.63;8.63;;;;;;;9.78;92.59;101434.72;5081108;28;20587;-78
2022/05/03 05:43:39;;;;;;;18.40;7.68;;;;;;;9.85;92.51;101437.59;5086716;28;20044;-77
2022/05/03 05:46:05;;;;;;;17.15;7.57;;;;;;;9.93;91.89;101444.00;5085087;28;20483;-76
2022/05/03 05:48:32;;;;;;;16.75;7.25;;;;;;;9.97;91.82;101434.59;5078447;28;20052;-77
2022/05/03 05:50:58;;;;;;;17.23;7.07;;;;;;;10.08;91.06;101440.28;5084338;28;20559;-77
2022/05/03 05:53:34;;;;;;;16.90;6.70;;;;;;;10.13;90.17;101443.50;5086144;28;20205;-77
2022/05/03 05:56:02;;;;;;;18.27;6.95;;;;;;;10.17;89.05;101433.25;5080577;28;20083;-80
2022/05/03 05:58:29;;;;;;;12.88;6.00;;;;;;;10.28;88.31;101450.81;5084187;28;20058;-78
2022/05/03 06:00:56;;;;;;;16.83;7.30;;;;;;;10.35;87.58;101445.34;5086908;28;20052;-78
2022/05/03 06:03:23;;;;;;;17.42;7.38;;;;;;;10.42;86.59;101439.91;5081913;28;20056;-78
2022/05/03 06:05:51;;;;;;;14.55;6.20;;;;;;;10.49;85.44;101434.44;5085506;28;20793;-78
2022/05/03 06:08:18;;;;;;;13.50;5.38;;;;;;;10.58;84.08;101447.97;5081306;28;20058;-79
2022/05/03 06:10:45;;;;;;;12.68;5.55;;;;;;;10.64;82.16;101448.41;5081829;28;20061;-78
2022/05/03 06:13:13;;;;;;;13.20;5.28;;;;;;;10.72;81.19;101452.84;5069393;28;20382;-78
2022/05/03 06:15:40;;;;;;;12.20;4.97;;;;;;;10.81;79.18;101450.56;5076913;28;20048;-79
2022/05/03 06:18:08;;;;;;;11.98;5.22;;;;;;;10.89;77.67;101452.22;5079049;27;20055;-77
2022/05/03 06:20:36;;;;;;;10.32;4.50;;;;;;;10.98;75.21;101453.50;5079602;28;20139;-81
2022/05/03 06:23:06;;;;;;;13.15;4.93;;;;;;;11.08;73.97;101458.34;5075557;28;20052;-78
2022/05/03 06:25:33;;;;;;;10.23;4.35;;;;;;;11.16;72.96;101465.50;5082522;28;20680;-79
2022/05/03 06:27:59;;;;;;;13.75;4.07;;;;;;;11.27;71.10;101474.69;5077550;28;20075;-79
2022/05/03 06:30:26;;;;;;;14.63;5.05;;;;;;;11.38;70.85;101461.75;5073838;28;20080;-79
2022/05/03 06:32:54;;;;;;;14.45;4.75;;;;;;;11.49;69.63;101468.16;5090460;28;20075;-78
2022/05/03 06:35:21;;;;;;;13.88;4.53;;;;;;;11.60;68.58;101468.22;5088846;28;20083;-79
2022/05/03 06:37:47;;;;;;;10.18;4.38;;;;;;;11.68;67.07;101467.13;5079430;28;20135;-78
2022/05/03 06:40:14;;;;;;;15.45;4.90;;;;;;;11.75;65.68;101470.72;5080297;28;20166;-79
2022/05/03 06:42:41;;;;;;;10.02;3.97;;;;;;;11.82;65.05;101478.28;5083035;28;20068;-81
2022/05/03 06:45:10;;;;;;;12.00;4.53;;;;;;;11.84;64.67;101467.59;5085479;28;20079;-77
2022/05/03 06:47:44;;;;;;;11.88;4.05;;;;;;;11.93;64.30;101466.09;5079505;28;20048;-76
2022/05/03 06:50:11;;;;;;;9.40;3.58;;;;;;;12.07;63.11;101468.13;5078149;28;20055;-79
2022/05/03 06:52:38;;;;;;;10.43;4.38;;;;;;;12.17;63.82;101464.59;5084346;28;20489;-76
2022/05/03 06:55:05;;;;;;;9.93;4.40;;;;;;;12.23;62.77;101468.59;5077340;28;20090;-77
2022/05/03 06:57:33;;;;;;;11.38;5.57;;;;;;;12.31;62.84;101464.66;5077653;28;20044;-79
2022/05/03 07:00:01;;;;;;;11.55;4.65;;;;;;;12.39;61.83;101463.50;5075796;28;20066;-76
2022/05/03 07:02:32;;;;;;;12.55;4.32;;;;;;;12.52;61.44;101473.06;5072428;28;20063;-77
2022/05/03 07:04:59;;;;;;;12.02;4.30;;;;;;;12.61;60.24;101471.50;5071256;28;20457;-76
2022/05/03 07:07:30;;;;;;;11.60;4.40;;;;;;;12.74;60.18;101481.06;5083331;28;20417;-77
2022/05/03 07:09:58;;;;;;;10.13;3.60;;;;;;;12.86;60.09;101489.00;5072473;28;20143;-78
2022/05/03 07:12:25;;;;;;;8.32;3.22;;;;;;;13.00;59.28;101479.94;5080032;28;20951;-77
2022/05/03 07:15:06;;;;;;;9.55;3.60;;;;;;;13.13;57.72;101480.34;5081381;28;20152;-77
2022/05/03 07:23:03;;;;;;;6.85;3.20;;;;;;;13.39;55.36;101485.50;5073147;28;20048;-79
2022/05/03 07:25:30;;;;;;;10.65;3.30;;;;;;;13.54;55.82;101487.88;5071205;28;20068;-78
2022/05/03 07:27:57;;;;;;;6.68;2.58;;;;;;;13.64;52.68;101481.53;5081678;28;20155;-78
2022/05/03 07:30:23;;;;;;;4.35;2.00;;;;;;;13.74;51.69;101491.81;5078831;28;20056;-74
2022/05/03 07:32:50;;;;;;;6.75;2.60;;;;;;;13.88;51.68;101491.00;5067334;28;20079;-71
2022/05/03 07:35:17;;;;;;;7.80;2.70;;;;;;;14.00;52.67;101491.34;5072500;28;20044;-76
2022/05/03 07:37:44;;;;;;;5.95;2.58;;;;;;;14.09;51.55;101483.38;5074569;28;20163;-71
2022/05/03 07:40:11;;;;;;;4.53;2.22;;;;;;;14.19;50.01;101496.47;5067693;28;20056;-76
2022/05/03 07:42:38;;;;;;;5.10;1.95;;;;;;;14.28;50.19;101496.06;5077345;28;20573;-78
2022/05/03 07:45:06;;;;;;;5.57;2.13;;;;;;;14.34;47.98;101494.47;5079459;28;20136;-77
2022/05/03 07:47:32;;;;;;;4.15;2.00;;;;;;;14.41;48.47;101495.22;5084845;28;20138;-78
2022/05/03 07:49:59;;;;;;;6.18;1.70;;;;;;;14.53;47.42;101491.19;5081457;28;20147;-77
2022/05/03 07:52:27;;;;;;;4.50;1.98;;;;;;;14.58;47.21;101491.53;5077947;28;20125;-77
2022/05/03 07:54:55;;;;;;;5.25;2.15;;;;;;;14.57;45.76;101489.97;5074646;28;20128;-77
2022/05/03 07:57:22;;;;;;;3.05;1.60;;;;;;;14.57;44.53;101486.38;5084592;28;20095;-76
2022/05/03 07:59:48;;;;;;;3.45;1.90;;;;;;;14.62;44.88;101486.75;5071167;28;20136;-79
2022/05/03 08:02:16;;;;;;;5.53;2.00;;;;;;;14.70;44.39;101491.09;5071892;28;20052;-76
2022/05/03 08:04:43;;;;;;;3.80;2.00;;;;;;;14.71;43.25;101489.88;5079898;28;20051;-77
2022/05/03 08:07:09;;;;;;;4.15;2.05;;;;;;;14.69;44.39;101492.31;5081278;28;20121;-77
2022/05/03 08:09:36;;;;;;;4.00;1.92;;;;;;;14.81;44.35;101500.19;5087660;28;20044;-78
2022/05/03 08:12:04;;;;;;;3.30;1.80;;;;;;;14.88;44.79;101497.34;5077313;28;20547;-78
2022/05/03 08:14:31;;;;;;;4.68;2.28;;;;;;;14.95;44.30;101491.72;5084903;28;20499;-77
2022/05/03 08:17:00;;;;;;;2.58;1.83;;;;;;;14.99;44.00;101495.28;5071303;28;20713;-77
2022/05/03 08:19:29;;;;;;;4.43;2.33;;;;;;;15.08;43.20;101503.97;5096142;28;20396;-77
2022/05/03 08:21:56;;;;;;;8.52;3.00;;;;;;;15.14;43.68;101505.13;5101906;28;20047;-77
2022/05/03 08:24:24;;;;;;;4.28;1.75;;;;;;;15.18;43.84;101503.09;5084777;28;20043;-77
2022/05/03 08:26:50;;;;;;;4.38;2.25;;;;;;;15.22;44.07;101505.84;5090271;28;20081;-78
2022/05/03 08:29:17;;;;;;;5.35;2.20;;;;;;;15.28;43.92;101504.22;5101160;28;20054;-78
2022/05/03 08:31:44;;;;;;;5.00;2.05;;;;;;;15.39;44.05;101505.75;5100053;28;20478;-77
2022/05/03 08:34:11;;;;;;;4.85;2.63;;;;;;;15.50;44.19;101495.28;5097437;28;20079;-71
2022/05/03 08:36:38;;;;;;;5.47;2.63;;;;;;;15.67;44.72;101503.91;5096629;28;20110;-72
2022/05/03 08:42:02;;;;;;;5.90;2.45;;;;;;;15.78;43.30;101504.59;5084451;28;20130;-77
2022/05/03 08:44:30;;;;;;;5.07;2.40;;;;;;;15.80;42.51;101502.19;5087025;28;20143;-76
2022/05/03 08:46:58;;;;;;;4.32;2.10;;;;;;;15.87;42.60;101516.09;5084803;28;20044;-73
2022/05/03 08:49:32;;;;;;;6.03;2.58;;;;;;;15.94;42.66;101507.63;5086554;28;20051;-74
2022/05/03 08:52:02;;;;;;;6.28;2.45;;;;;;;16.02;42.65;101514.72;5076956;28;20055;-75
2022/05/03 08:54:29;;;;;;;4.65;2.47;;;;;;;16.05;42.27;101514.69;5085465;28;20076;-74
2022/05/03 08:56:56;;;;;;;7.80;2.97;;;;;;;16.13;42.73;101515.41;5091055;28;20070;-74
2022/05/03 08:59:23;;;;;;;8.93;2.75;;;;;;;16.10;42.95;101505.84;5083776;28;20461;-74
2022/05/03 09:01:50;;;;;;;8.70;2.85;;;;;;;16.27;42.86;101515.25;5087054;28;20574;-76
2022/05/03 09:04:16;;;;;;;9.27;2.28;;;;;;;16.31;42.57;101516.00;5080635;28;20082;-75
2022/05/03 09:06:48;;;;;;;4.82;2.30;;;;;;;16.38;41.90;101501.94;5083923;28;20063;-78
2022/05/03 09:09:18;;;;;;;6.53;2.45;;;;;;;16.53;42.02;101509.75;5094164;28;20054;-76
2022/05/03 09:11:49;;;;;;;4.97;2.25;;;;;;;16.59;40.75;101512.88;5099417;28;20055;-76
2022/05/03 09:14:52;;;;;;;6.55;3.10;;;;;;;16.66;40.28;101510.78;5088592;28;20055;-76
2022/05/03 09:17:37;;;;;;;6.10;2.05;;;;;;;16.74;39.79;101519.88;4984125;28;20419;-76
2022/05/03 09:26:14;;;;;;;3.63;2.05;;;;;;;16.94;38.87;101515.97;5098635;28;20096;-76
2022/05/03 09:28:55;;;;;;;5.07;2.13;;;;;;;17.01;38.95;101510.28;5094578;28;20082;-75
2022/05/03 09:31:47;;;;;;;7.10;2.15;;;;;;;17.10;37.96;101502.16;5108346;27;20080;-76
2022/05/03 09:34:18;;;;;;;4.70;2.00;;;;;;;17.23;38.02;101502.34;5101557;28;20417;-77
2022/05/03 09:36:58;;;;;;;2.58;1.60;;;;;;;17.26;37.84;101507.09;5100867;28;20155;-76
2022/05/03 09:39:42;;;;;;;7.47;1.80;;;;;;;17.33;38.55;101505.00;5093644;28;20088;-78
2022/05/03 09:42:10;;;;;;;2.90;1.50;;;;;;;17.40;37.06;101504.88;5100771;28;20039;-77
2022/05/03 09:44:50;;;;;;;6.47;2.30;;;;;;;17.58;37.53;101510.19;5098859;28;20048;-77
2022/05/03 09:47:18;;;;;;;4.65;1.98;;;;;;;17.71;37.78;101505.56;5098128;28;20559;-78
2022/05/03 09:49:45;;;;;;;4.15;1.95;;;;;;;17.83;38.00;101494.53;5093899;28;20048;-78
2022/05/03 09:52:33;;;;;;;6.50;2.10;;;;;;;17.78;36.32;101500.63;5104494;28;20055;-77
2022/05/03 09:55:07;;;;;;;5.15;1.63;;;;;;;17.86;37.08;101504.09;5101640;28;20058;-76
2022/05/03 09:57:44;;;;;;;1.87;1.67;;;;;;;18.00;36.31;101498.22;5104989;27;20040;-77
2022/05/03 10:00:12;;;;;;;6.30;2.10;;;;;;;18.20;37.22;101496.22;5088996;28;20496;-78
2022/05/03 10:02:42;;;;;;;4.25;1.85;;;;;;;18.31;36.71;101501.59;5072686;28;20055;-77
2022/05/03 10:05:13;;;;;;;3.67;1.92;;;;;;;18.40;36.09;101493.44;5103617;28;20047;-77
2022/05/03 10:07:43;;;;;;;8.00;2.55;;;;;;;18.50;36.11;101486.84;5104416;27;20131;-75
2022/05/03 10:10:11;;;;;;;4.72;2.22;;;;;;;18.61;36.47;101493.00;5103761;28;20054;-77
2022/05/03 10:12:38;;;;;;;5.95;2.40;;;;;;;18.72;36.62;101494.34;5104695;28;20055;-76
2022/05/03 10:15:05;;;;;;;3.75;2.10;;;;;;;18.82;35.98;101495.31;5095509;28;20054;-76
2022/05/03 10:20:46;;;;;;;6.53;2.28;;;;;;;18.98;36.42;101490.53;5090481;28;20097;-78
2022/05/03 10:23:25;;;;;;;7.38;2.47;;;;;;;19.14;36.32;101492.56;5091829;28;20058;-77
2022/05/03 10:25:58;;;;;;;8.82;2.63;;;;;;;19.16;35.22;101482.50;5076172;28;20194;-76
2022/05/03 10:28:45;;;;;;;5.85;2.88;;;;;;;19.15;35.15;101483.72;5102083;28;20047;-76
2022/05/03 10:31:13;;;;;;;5.22;2.70;;;;;;;19.30;35.82;101479.38;5102480;28;20051;-77
2022/05/03 10:33:42;;;;;;;7.40;2.67;;;;;;;19.24;35.33;101477.50;5101570;28;20071;-76
2022/05/03 10:36:40;;;;;;;9.88;2.90;;;;;;;19.00;34.66;101476.84;5094450;28;20044;-77
2022/05/03 10:39:23;;;;;;;9.68;3.33;;;;;;;19.12;35.52;101472.56;5099425;28;20126;-77
2022/05/03 10:42:02;;;;;;;10.05;2.60;;;;;;;19.24;35.58;101471.91;5091046;28;20113;-78
2022/05/03 10:45:01;;;;;;;5.57;2.78;;;;;;;19.27;36.02;101466.22;5095571;28;20492;-77
2022/05/03 10:47:50;;;;;;;7.30;2.97;;;;;;;19.54;36.04;101471.56;5084211;28;20047;-77
2022/05/03 10:50:16;;;;;;;9.30;3.50;;;;;;;19.81;36.05;101464.38;5101798;28;20112;-77
2022/05/03 10:52:59;;;;;;;6.18;2.88;;;;;;;19.95;35.91;101466.81;5073983;28;20048;-73
2022/05/03 10:55:32;;;;;;;7.85;3.58;;;;;;;20.11;36.32;101463.19;5096497;27;20534;-77
2022/05/03 10:58:18;;;;;;;6.82;3.53;;;;;;;20.28;34.56;101459.88;5093074;28;20522;-77
2022/05/03 11:01:01;;;;;;;11.23;4.10;;;;;;;20.39;35.24;101460.34;5088324;28;20039;-78
2022/05/03 11:03:28;;;;;;;11.73;3.83;;;;;;;20.50;34.95;101459.22;5096420;28;20047;-78
2022/05/03 11:06:23;;;;;;;7.10;3.03;;;;;;;20.54;34.66;101454.28;5082720;28;20573;-72
2022/05/03 11:09:09;;;;;;;8.55;4.05;;;;;;;20.73;35.51;101462.53;5104815;28;20449;-77
2022/05/03 11:11:36;;;;;;;11.23;4.45;;;;;;;20.84;35.26;101456.56;5074909;28;20056;-75
2022/05/03 11:14:02;;;;;;;10.00;4.70;;;;;;;20.83;34.89;101461.41;5096936;28;20123;-74
2022/05/03 11:16:34;;;;;;;8.57;4.25;;;;;;;20.93;35.39;101453.88;5104900;28;20086;-74
2022/05/03 11:19:10;;;;;;;8.73;3.92;;;;;;;20.61;34.50;101451.28;5094372;28;20051;-75
2022/05/03 11:21:36;;;;;;;;;;;;;;;20.69;35.49;101449.81;5096501;28;20052;-74
2022/05/03 11:24:04;;;;;;;10.73;4.30;;;;;;;20.93;35.91;101432.19;5102500;28;20055;-73
2022/05/03 11:26:31;;;;;;;11.38;4.25;;;;;;;21.23;35.56;101430.81;5104571;28;20062;-78
2022/05/03 11:29:01;;;;;;;9.40;3.80;;;;;;;21.37;35.02;101427.50;5095564;27;20058;-76
2022/05/03 11:31:28;;;;;;;8.88;4.15;;;;;;;21.47;34.78;101438.41;5092336;27;20067;-76
2022/05/03 11:33:58;;;;;;;10.57;4.18;;;;;;;21.52;33.88;101432.19;5105579;28;20066;-77
2022/05/03 11:36:27;;;;;;;9.57;4.03;;;;;;;21.62;34.33;101427.41;5083499;28;20052;-74
2022/05/03 11:38:54;;;;;;;6.22;3.22;;;;;;;21.60;33.48;101421.47;5100249;28;20135;-74
2022/05/03 11:41:23;;;;;;;8.60;4.00;;;;;;;21.90;34.26;101429.25;5075066;28;20048;-76
2022/05/03 11:43:49;;;;;;;10.50;3.80;;;;;;;21.89;33.02;101407.94;5100086;28;20130;-77
2022/05/03 11:46:17;;;;;;;8.88;3.95;;;;;;;21.98;33.44;101408.03;5083500;28;20052;-76
2022/05/03 11:48:45;;;;;;;7.63;4.10;;;;;;;22.26;33.71;101416.19;5094525;28;20048;-74
2022/05/03 11:56:47;;;;;;;6.95;3.88;;;;;;;22.77;32.05;101406.16;5099800;28;20151;-73
2022/05/03 11:59:14;;;;;;;8.13;3.75;;;;;;;22.78;32.37;101406.94;5096067;28;20148;-74
2022/05/03 12:01:41;;;;;;;6.32;3.45;;;;;;;23.14;32.12;101406.22;5101760;28;20087;-73
2022/05/03 12:04:08;;;;;;;8.48;4.32;;;;;;;23.43;32.56;101396.13;5091880;28;20044;-71
2022/05/03 12:06:47;;;;;;;8.45;3.80;;;;;;;23.65;31.76;101402.41;5103884;28;20160;-72
2022/05/03 12:09:18;;;;;;;12.10;3.95;;;;;;;23.46;29.71;101397.22;5100737;27;20121;-76
2022/05/03 12:14:42;;;;;;;7.72;3.95;;;;;;;24.06;29.80;101398.94;5101480;28;20079;-74
2022/05/03 12:17:09;;;;;;;10.43;4.85;;;;;;;24.43;29.82;101394.78;5097300;28;20083;-74